createdAt,value
2017-03-03T00:00:21.624Z,80
2017-03-03T00:01:21.590Z,80
2017-03-03T00:02:21.346Z,80
2017-03-03T00:03:21.594Z,80
2017-03-03T00:04:21.709Z,80
2017-03-03T00:05:21.612Z,80
2017-03-03T00:06:21.734Z,80
2017-03-03T00:07:21.630Z,80
2017-03-03T00:08:21.636Z,80
2017-03-03T00:09:21.705Z,80
2017-03-03T00:10:21.759Z,80
2017-03-03T00:11:21.836Z,80
2017-03-03T00:12:21.281Z,80
2017-03-03T00:13:21.226Z,80
2017-03-03T00:14:21.797Z,80
2017-03-03T00:15:21.792Z,80
2017-03-03T00:16:21.484Z,80
2017-03-03T00:17:21.749Z,76
2017-03-03T00:18:21.790Z,80
2017-03-03T00:19:21.767Z,80
2017-03-03T00:20:21.817Z,76
2017-03-03T00:21:21.327Z,76
2017-03-03T00:22:21.768Z,80
2017-03-03T00:23:21.836Z,80
2017-03-03T00:24:21.800Z,80
2017-03-03T00:25:21.796Z,80
2017-03-03T00:26:21.801Z,80
2017-03-03T00:27:21.752Z,80
2017-03-03T00:28:21.873Z,80
2017-03-03T00:29:21.491Z,80
2017-03-03T00:30:21.834Z,80
2017-03-03T00:31:21.479Z,80
2017-03-03T00:32:21.854Z,80
2017-03-03T00:33:21.844Z,80
2017-03-03T00:34:21.857Z,80
2017-03-03T00:35:21.807Z,80
2017-03-03T00:36:21.910Z,80
2017-03-03T00:37:21.927Z,80
2017-03-03T00:38:21.933Z,80
2017-03-03T00:39:21.854Z,80
2017-03-03T00:40:21.895Z,80
2017-03-03T00:41:22.301Z,80
2017-03-03T00:42:21.913Z,80
2017-03-03T00:43:21.542Z,80
2017-03-03T00:44:21.967Z,80
2017-03-03T00:45:21.581Z,80
2017-03-03T00:46:21.942Z,80
2017-03-03T00:47:21.638Z,80
2017-03-03T00:48:22.599Z,80
2017-03-03T00:49:21.900Z,80
2017-03-03T00:50:21.604Z,80
2017-03-03T00:51:22.764Z,76
2017-03-03T00:52:22.065Z,80
2017-03-03T00:53:21.934Z,80
2017-03-03T00:54:21.990Z,80
2017-03-03T00:55:22.150Z,80
2017-03-03T00:56:21.597Z,80
2017-03-03T00:57:22.020Z,80
2017-03-03T00:58:22.031Z,80
2017-03-03T00:59:21.977Z,80
2017-03-03T01:00:22.071Z,80
2017-03-03T01:01:22.034Z,80
2017-03-03T01:02:22.185Z,80
2017-03-03T01:03:22.059Z,80
2017-03-03T01:04:22.052Z,80
2017-03-03T01:05:22.003Z,80
2017-03-03T01:06:22.151Z,80
2017-03-03T01:07:21.669Z,80
2017-03-03T01:08:21.704Z,80
2017-03-03T01:09:21.764Z,80
2017-03-03T01:10:22.102Z,80
2017-03-03T01:11:22.101Z,80
2017-03-03T01:12:22.007Z,80
2017-03-03T01:16:37.505Z,76
2017-03-03T01:17:08.692Z,76
2017-03-03T01:18:08.678Z,76
2017-03-03T01:19:08.642Z,80
2017-03-03T01:20:08.606Z,76
2017-03-03T01:21:08.603Z,76
2017-03-03T01:22:08.071Z,80
2017-03-03T01:23:08.676Z,76
2017-03-03T01:24:10.137Z,80
2017-03-03T01:25:08.644Z,76
2017-03-03T01:26:09.293Z,76
2017-03-03T01:27:08.739Z,76
2017-03-03T01:28:08.692Z,76
2017-03-03T01:29:08.700Z,76
2017-03-03T01:30:08.324Z,76
2017-03-03T01:31:08.777Z,76
2017-03-03T01:32:08.816Z,0
2017-03-03T01:33:08.836Z,0
2017-03-03T01:34:08.297Z,0
2017-03-03T01:35:09.758Z,0
2017-03-03T01:36:08.296Z,0
2017-03-03T01:37:08.808Z,0
2017-03-03T01:38:08.375Z,0
2017-03-03T01:39:08.835Z,0
2017-03-03T01:40:08.743Z,0
2017-03-03T01:41:08.729Z,0
2017-03-03T01:42:07.984Z,0
2017-03-03T01:43:08.510Z,0
2017-03-03T01:44:09.893Z,0
2017-03-03T01:45:08.858Z,0
2017-03-03T01:46:09.061Z,0
2017-03-03T01:47:08.827Z,0
2017-03-03T01:48:08.422Z,0
2017-03-03T01:49:08.845Z,0
2017-03-03T01:50:08.496Z,0
2017-03-03T01:51:08.412Z,0
2017-03-03T01:52:08.514Z,0
2017-03-03T01:53:08.516Z,0
2017-03-03T01:54:08.861Z,0
2017-03-03T01:55:09.196Z,0
2017-03-03T01:56:10.047Z,0
2017-03-03T01:57:08.882Z,0
2017-03-03T01:58:08.914Z,0
2017-03-03T01:59:08.144Z,0
2017-03-03T02:00:08.937Z,0
2017-03-03T02:01:08.912Z,0
2017-03-03T02:02:08.885Z,0
2017-03-03T02:03:09.012Z,0
2017-03-03T02:04:08.984Z,0
2017-03-03T02:05:08.983Z,0
2017-03-03T02:06:09.008Z,0
2017-03-03T02:07:08.148Z,0
2017-03-03T02:08:09.983Z,0
2017-03-03T02:09:08.627Z,0
2017-03-03T02:10:09.837Z,0
2017-03-03T02:11:08.200Z,0
2017-03-03T02:12:08.200Z,0
2017-03-03T02:13:08.935Z,0
2017-03-03T02:14:08.846Z,0
2017-03-03T02:15:09.265Z,0
2017-03-03T02:16:08.557Z,0
2017-03-03T02:17:09.010Z,0
2017-03-03T02:18:09.075Z,0
2017-03-03T02:19:10.291Z,0
2017-03-03T02:20:08.732Z,0
2017-03-03T02:21:09.488Z,0
2017-03-03T02:22:09.045Z,0
2017-03-03T02:23:09.309Z,0
2017-03-03T02:24:09.008Z,0
2017-03-03T02:25:09.087Z,0
2017-03-03T02:26:09.085Z,0
2017-03-03T02:27:09.025Z,0
2017-03-03T02:28:08.697Z,0
2017-03-03T02:29:09.106Z,0
2017-03-03T02:30:09.849Z,0
2017-03-03T02:31:08.729Z,0
2017-03-03T02:32:08.874Z,0
2017-03-03T02:33:08.674Z,0
2017-03-03T02:34:08.729Z,0
2017-03-03T02:35:08.759Z,0
2017-03-03T02:36:07.892Z,0
2017-03-03T02:37:09.163Z,0
2017-03-03T02:38:09.156Z,0
2017-03-03T02:39:08.757Z,0
2017-03-03T02:40:08.727Z,0
2017-03-03T02:41:09.670Z,0
2017-03-03T02:42:08.842Z,0
2017-03-03T02:43:08.797Z,0
2017-03-03T02:44:08.866Z,0
2017-03-03T02:45:08.763Z,0
2017-03-03T02:46:09.163Z,0
2017-03-03T02:47:09.262Z,0
2017-03-03T02:48:09.282Z,0
2017-03-03T02:49:08.873Z,0
2017-03-03T02:50:09.302Z,0
2017-03-03T02:51:08.890Z,0
2017-03-03T02:52:09.446Z,0
2017-03-03T02:53:09.196Z,0
2017-03-03T02:54:09.202Z,0
2017-03-03T02:55:08.818Z,0
2017-03-03T02:56:09.285Z,0
2017-03-03T02:57:08.933Z,0
2017-03-03T02:58:08.954Z,0
2017-03-03T02:59:08.897Z,0
2017-03-03T03:00:09.257Z,0
2017-03-03T03:01:09.270Z,0
2017-03-03T03:02:08.970Z,0
2017-03-03T03:03:09.315Z,0
2017-03-03T03:04:08.921Z,0
2017-03-03T03:05:10.793Z,0
2017-03-03T03:06:09.431Z,0
2017-03-03T03:07:09.395Z,0
2017-03-03T03:08:09.861Z,0
2017-03-03T03:09:08.965Z,0
2017-03-03T03:10:08.978Z,0
2017-03-03T03:11:09.394Z,0
2017-03-03T03:12:08.939Z,0
2017-03-03T03:13:10.896Z,0
2017-03-03T03:14:09.389Z,0
2017-03-03T03:15:08.943Z,0
2017-03-03T03:16:10.071Z,0
2017-03-03T03:17:09.464Z,0
2017-03-03T03:18:09.440Z,0
2017-03-03T03:19:09.418Z,0
2017-03-03T03:20:09.489Z,0
2017-03-03T03:21:09.455Z,0
2017-03-03T03:22:09.387Z,0
2017-03-03T03:23:09.443Z,0
2017-03-03T03:24:09.511Z,0
2017-03-03T03:25:10.887Z,0
2017-03-03T03:26:09.473Z,0
2017-03-03T03:27:09.707Z,0
2017-03-03T03:28:09.483Z,0
2017-03-03T03:29:09.442Z,0
2017-03-03T03:30:09.567Z,0
2017-03-03T03:31:09.495Z,0
2017-03-03T03:32:09.100Z,0
2017-03-03T03:33:09.109Z,0
2017-03-03T03:34:09.476Z,0
2017-03-03T03:35:09.782Z,0
2017-03-03T03:36:10.721Z,0
2017-03-03T03:37:09.081Z,0
2017-03-03T03:38:09.738Z,0
2017-03-03T03:39:09.625Z,0
2017-03-03T03:40:09.577Z,0
2017-03-03T03:41:09.656Z,0
2017-03-03T03:42:09.614Z,0
2017-03-03T03:43:09.533Z,0
2017-03-03T03:45:18.370Z,0
2017-03-03T03:46:18.361Z,0
2017-03-03T03:47:18.047Z,0
2017-03-03T03:48:18.499Z,0
2017-03-03T03:49:18.892Z,0
2017-03-03T03:50:18.042Z,0
2017-03-03T03:51:18.515Z,0
2017-03-03T03:52:18.004Z,0
2017-03-03T03:53:18.417Z,0
2017-03-03T03:54:18.466Z,0
2017-03-03T03:55:18.488Z,0
2017-03-03T03:56:18.154Z,0
2017-03-03T03:57:18.450Z,0
2017-03-03T03:58:18.590Z,0
2017-03-03T03:59:18.116Z,0
2017-03-03T04:00:19.165Z,0
2017-03-03T04:01:18.619Z,0
2017-03-03T04:02:18.289Z,0
2017-03-03T04:03:18.236Z,0
2017-03-03T04:04:18.592Z,0
2017-03-03T04:05:18.139Z,0
2017-03-03T04:06:18.495Z,0
2017-03-03T04:07:18.602Z,0
2017-03-03T04:08:18.524Z,0
2017-03-03T04:09:18.576Z,0
2017-03-03T04:10:18.521Z,0
2017-03-03T04:11:18.425Z,0
2017-03-03T04:12:18.137Z,0
2017-03-03T04:13:18.546Z,0
2017-03-03T04:14:18.256Z,0
2017-03-03T04:15:18.329Z,0
2017-03-03T04:16:18.565Z,0
2017-03-03T04:17:18.273Z,0
2017-03-03T04:18:18.634Z,0
2017-03-03T04:19:18.279Z,0
2017-03-03T04:20:18.204Z,0
2017-03-03T04:21:18.690Z,0
2017-03-03T04:22:18.248Z,0
2017-03-03T04:23:18.216Z,0
2017-03-03T04:24:19.245Z,0
2017-03-03T04:25:18.279Z,0
2017-03-03T04:26:18.783Z,0
2017-03-03T04:27:18.248Z,0
2017-03-03T04:28:18.745Z,0
2017-03-03T04:29:18.297Z,0
2017-03-03T04:30:18.299Z,0
2017-03-03T04:31:17.986Z,0
2017-03-03T04:32:18.431Z,0
2017-03-03T04:33:20.258Z,0
2017-03-03T04:34:18.993Z,0
2017-03-03T04:35:19.485Z,0
2017-03-03T04:36:18.789Z,0
2017-03-03T04:37:18.793Z,0
2017-03-03T04:38:17.906Z,0
2017-03-03T04:39:18.765Z,0
2017-03-03T04:40:18.428Z,0
2017-03-03T04:41:18.830Z,0
2017-03-03T04:42:18.855Z,0
2017-03-03T04:43:18.780Z,0
2017-03-03T04:44:19.651Z,0
2017-03-03T04:45:18.405Z,0
2017-03-03T04:46:18.805Z,0
2017-03-03T04:47:18.427Z,0
2017-03-03T04:48:18.788Z,0
2017-03-03T04:49:18.780Z,0
2017-03-03T04:50:18.432Z,0
2017-03-03T04:51:18.865Z,0
2017-03-03T04:52:18.118Z,0
2017-03-03T04:53:18.892Z,0
2017-03-03T04:54:18.869Z,0
2017-03-03T04:55:19.120Z,0
2017-03-03T04:56:18.522Z,0
2017-03-03T04:57:17.828Z,0
2017-03-03T04:58:18.427Z,0
2017-03-03T04:59:18.485Z,0
2017-03-03T05:00:18.994Z,0
2017-03-03T05:01:18.127Z,0
2017-03-03T05:02:18.905Z,0
2017-03-03T05:03:18.972Z,0
2017-03-03T05:04:18.940Z,0
2017-03-03T05:05:18.474Z,0
2017-03-03T05:06:18.947Z,0
2017-03-03T05:07:18.879Z,0
2017-03-03T05:08:20.287Z,0
2017-03-03T05:09:18.944Z,0
2017-03-03T05:10:18.957Z,0
2017-03-03T05:11:19.037Z,0
2017-03-03T05:12:18.916Z,0
2017-03-03T05:13:18.981Z,0
2017-03-03T05:14:18.981Z,0
2017-03-03T05:15:18.592Z,0
2017-03-03T05:16:17.848Z,0
2017-03-03T05:17:18.605Z,0
2017-03-03T05:18:18.923Z,0
2017-03-03T05:19:19.906Z,0
2017-03-03T05:20:18.981Z,0
2017-03-03T05:21:18.670Z,0
2017-03-03T05:22:19.042Z,0
2017-03-03T05:23:18.592Z,0
2017-03-03T05:24:19.365Z,0
2017-03-03T05:25:18.669Z,0
2017-03-03T05:26:19.061Z,0
2017-03-03T05:27:19.087Z,0
2017-03-03T05:28:18.680Z,0
2017-03-03T05:29:19.126Z,0
2017-03-03T05:30:19.898Z,0
2017-03-03T05:31:19.207Z,0
2017-03-03T05:32:19.070Z,0
2017-03-03T05:33:18.732Z,0
2017-03-03T05:34:18.709Z,0
2017-03-03T05:35:19.168Z,0
2017-03-03T05:36:19.169Z,0
2017-03-03T05:37:19.155Z,0
2017-03-03T05:38:18.738Z,0
2017-03-03T05:39:22.199Z,0
2017-03-03T05:40:19.109Z,0
2017-03-03T05:41:19.371Z,0
2017-03-03T05:42:19.115Z,0
2017-03-03T05:43:19.190Z,0
2017-03-03T05:44:19.135Z,0
2017-03-03T05:45:19.235Z,0
2017-03-03T05:46:19.192Z,0
2017-03-03T05:47:18.791Z,0
2017-03-03T05:48:18.918Z,0
2017-03-03T05:49:18.829Z,4
2017-03-03T05:50:20.068Z,4
2017-03-03T05:51:19.235Z,0
2017-03-03T05:52:19.176Z,0
2017-03-03T05:53:19.282Z,4
2017-03-03T05:54:18.842Z,4
2017-03-03T05:55:18.842Z,4
2017-03-03T05:56:19.315Z,4
2017-03-03T05:57:19.269Z,4
2017-03-03T05:58:18.888Z,8
2017-03-03T05:59:18.916Z,8
2017-03-03T06:00:18.925Z,8
2017-03-03T06:01:19.881Z,8
2017-03-03T06:02:18.916Z,12
2017-03-03T06:03:21.337Z,12
2017-03-03T06:04:19.313Z,12
2017-03-03T06:05:19.266Z,16
2017-03-03T06:06:18.917Z,20
2017-03-03T06:07:19.372Z,24
2017-03-03T06:08:18.958Z,24
2017-03-03T06:09:18.980Z,28
2017-03-03T06:10:18.905Z,28
2017-03-03T06:11:19.350Z,28
2017-03-03T06:12:19.710Z,32
2017-03-03T06:13:19.058Z,36
2017-03-03T06:14:18.936Z,40
2017-03-03T06:15:19.437Z,44
2017-03-03T06:16:20.434Z,48
2017-03-03T06:17:18.988Z,52
2017-03-03T06:18:19.396Z,56
2017-03-03T06:19:19.444Z,60
2017-03-03T06:20:19.464Z,60
2017-03-03T06:21:19.365Z,68
2017-03-03T06:22:18.966Z,72
2017-03-03T06:23:19.391Z,76
2017-03-03T06:24:19.446Z,80
2017-03-03T06:25:19.037Z,88
2017-03-03T06:26:19.051Z,92
2017-03-03T06:27:20.208Z,96
2017-03-03T06:28:19.515Z,104
2017-03-03T06:29:19.473Z,116
2017-03-03T06:30:19.085Z,120
2017-03-03T06:31:19.169Z,132
2017-03-03T06:32:19.481Z,140
2017-03-03T06:33:19.438Z,144
2017-03-03T06:34:19.796Z,152
2017-03-03T06:35:19.451Z,164
2017-03-03T06:36:20.953Z,176
2017-03-03T06:37:19.112Z,184
2017-03-03T06:38:20.177Z,196
2017-03-03T06:39:19.535Z,208
2017-03-03T06:40:19.635Z,224
2017-03-03T06:41:19.199Z,236
2017-03-03T06:42:19.489Z,252
2017-03-03T06:43:19.550Z,256
2017-03-03T06:44:19.574Z,268
2017-03-03T06:45:19.622Z,284
2017-03-03T06:46:19.537Z,288
2017-03-03T06:47:20.397Z,296
2017-03-03T06:48:19.646Z,300
2017-03-03T06:49:19.962Z,312
2017-03-03T06:50:19.201Z,316
2017-03-03T06:51:19.566Z,324
2017-03-03T06:52:19.655Z,340
2017-03-03T06:53:19.616Z,356
2017-03-03T06:54:19.985Z,368
2017-03-03T06:55:19.644Z,388
2017-03-03T06:56:19.584Z,392
2017-03-03T06:57:19.643Z,400
2017-03-03T06:58:20.654Z,412
2017-03-03T06:59:19.694Z,416
2017-03-03T07:00:19.731Z,424
2017-03-03T07:01:19.790Z,448
2017-03-03T07:02:19.281Z,472
2017-03-03T07:03:19.233Z,492
2017-03-03T07:04:19.736Z,516
2017-03-03T07:05:19.294Z,524
2017-03-03T07:06:19.692Z,536
2017-03-03T07:07:20.665Z,548
2017-03-03T07:08:19.742Z,556
2017-03-03T07:09:20.368Z,568
2017-03-03T07:10:19.825Z,576
2017-03-03T07:11:19.731Z,584
2017-03-03T07:12:19.299Z,600
2017-03-03T07:13:18.986Z,608
2017-03-03T07:14:19.750Z,616
2017-03-03T07:15:19.710Z,628
2017-03-03T07:16:19.828Z,660
2017-03-03T07:17:19.768Z,676
2017-03-03T07:18:21.133Z,684
2017-03-03T07:19:19.789Z,680
2017-03-03T07:20:20.189Z,676
2017-03-03T07:21:19.455Z,684
2017-03-03T07:22:19.905Z,696
2017-03-03T07:23:19.762Z,712
2017-03-03T07:24:19.837Z,716
2017-03-03T07:25:19.475Z,728
2017-03-03T07:26:19.877Z,744
2017-03-03T07:27:19.889Z,744
2017-03-03T07:28:19.838Z,732
2017-03-03T07:29:20.611Z,724
2017-03-03T07:30:20.019Z,728
2017-03-03T07:31:20.025Z,744
2017-03-03T07:32:19.862Z,756
2017-03-03T07:33:19.545Z,768
2017-03-03T07:34:19.893Z,776
2017-03-03T07:35:19.438Z,772
2017-03-03T07:36:19.836Z,804
2017-03-03T07:37:19.958Z,840
2017-03-03T07:38:19.521Z,860
2017-03-03T07:39:19.811Z,872
2017-03-03T07:40:21.012Z,884
2017-03-03T07:41:19.576Z,892
2017-03-03T07:42:20.245Z,896
2017-03-03T07:43:19.552Z,904
2017-03-03T07:44:34.666Z,928
2017-03-03T07:45:19.900Z,944
2017-03-03T07:46:19.969Z,964
2017-03-03T07:47:19.912Z,988
2017-03-03T07:48:19.919Z,1008
2017-03-03T07:49:19.605Z,1028
2017-03-03T07:50:20.237Z,1028
2017-03-03T07:51:20.742Z,1016
2017-03-03T07:52:20.014Z,1008
2017-03-03T07:53:19.862Z,1020
2017-03-03T07:54:19.664Z,1028
2017-03-03T07:55:20.186Z,1056
2017-03-03T07:56:19.301Z,1080
2017-03-03T07:57:19.683Z,1092
2017-03-03T07:58:19.691Z,1144
2017-03-03T07:59:20.064Z,1208
2017-03-03T08:00:19.672Z,1180
2017-03-03T08:01:20.061Z,1168
2017-03-03T08:02:20.578Z,1140
2017-03-03T08:03:19.987Z,1132
2017-03-03T08:04:20.043Z,1152
2017-03-03T08:05:19.741Z,1196
2017-03-03T08:06:19.667Z,1264
2017-03-03T08:07:19.664Z,1364
2017-03-03T08:08:19.687Z,1768
2017-03-03T08:09:19.682Z,2756
2017-03-03T08:10:20.527Z,3260
2017-03-03T08:11:20.134Z,3060
2017-03-03T08:12:20.153Z,4112
2017-03-03T08:13:20.651Z,3756
2017-03-03T08:14:20.418Z,3740
2017-03-03T08:15:20.139Z,4936
2017-03-03T08:16:20.221Z,4776
2017-03-03T08:17:20.194Z,4232
2017-03-03T08:18:20.215Z,5060
2017-03-03T08:19:20.151Z,4924
2017-03-03T08:20:19.835Z,5168
2017-03-03T08:21:19.839Z,5008
2017-03-03T08:22:20.293Z,4712
2017-03-03T08:23:20.256Z,4232
2017-03-03T08:24:20.609Z,4912
2017-03-03T08:25:19.409Z,4772
2017-03-03T08:26:20.372Z,4736
2017-03-03T08:27:20.284Z,4332
2017-03-03T08:28:21.268Z,2932
2017-03-03T08:29:19.894Z,2892
2017-03-03T08:30:20.354Z,3632
2017-03-03T08:31:19.570Z,3408
2017-03-03T08:32:20.284Z,4300
2017-03-03T08:33:19.988Z,4428
2017-03-03T08:34:19.988Z,4236
2017-03-03T08:35:20.748Z,2984
2017-03-03T08:36:19.960Z,1592
2017-03-03T08:37:20.358Z,1696
2017-03-03T08:38:19.646Z,1696
2017-03-03T08:39:19.976Z,1940
2017-03-03T08:40:20.017Z,2504
2017-03-03T08:41:20.444Z,2768
2017-03-03T08:42:20.430Z,3704
2017-03-03T08:43:20.082Z,3912
2017-03-03T08:44:20.469Z,3592
2017-03-03T08:45:19.981Z,2924
2017-03-03T08:46:20.306Z,3304
2017-03-03T08:47:20.439Z,2628
2017-03-03T08:48:20.454Z,2732
2017-03-03T08:49:20.181Z,2504
2017-03-03T08:50:21.593Z,2744
2017-03-03T08:51:20.449Z,2376
2017-03-03T08:52:20.040Z,2168
2017-03-03T08:53:20.546Z,2092
2017-03-03T08:54:20.065Z,2084
2017-03-03T08:55:20.567Z,2140
2017-03-03T08:56:20.533Z,2512
2017-03-03T08:57:20.579Z,2596
2017-03-03T08:58:19.745Z,2784
2017-03-03T08:59:20.508Z,2784
2017-03-03T09:00:20.180Z,2816
2017-03-03T09:01:20.733Z,2480
2017-03-03T09:02:20.220Z,2108
2017-03-03T09:03:20.627Z,2216
2017-03-03T09:04:20.579Z,2040
2017-03-03T09:05:20.588Z,2412
2017-03-03T09:06:20.626Z,2468
2017-03-03T09:07:20.612Z,2192
2017-03-03T09:08:20.219Z,2428
2017-03-03T09:09:20.231Z,2884
2017-03-03T09:10:20.195Z,3412
2017-03-03T09:11:20.652Z,3672
2017-03-03T09:12:21.364Z,3808
2017-03-03T09:13:20.314Z,3844
2017-03-03T09:14:51.072Z,4324
2017-03-03T09:15:20.746Z,3672
2017-03-03T09:16:21.188Z,3760
2017-03-03T09:17:20.241Z,4116
2017-03-03T09:18:20.808Z,3920
2017-03-03T09:19:20.727Z,3756
2017-03-03T09:20:19.928Z,3676
2017-03-03T09:21:21.779Z,3552
2017-03-03T09:22:21.881Z,2976
2017-03-03T09:23:21.056Z,3376
2017-03-03T09:24:20.745Z,3672
2017-03-03T09:25:20.766Z,3556
2017-03-03T09:26:20.867Z,3756
2017-03-03T09:27:20.486Z,3832
2017-03-03T09:28:20.352Z,3944
2017-03-03T09:29:20.796Z,3496
2017-03-03T09:30:20.365Z,3988
2017-03-03T09:31:20.826Z,4124
2017-03-03T09:32:21.736Z,3712
2017-03-03T09:33:20.890Z,3748
2017-03-03T09:34:20.521Z,3696
2017-03-03T09:35:20.503Z,4068
2017-03-03T09:36:20.470Z,3328
2017-03-03T09:37:20.808Z,2508
2017-03-03T09:38:21.227Z,2192
2017-03-03T09:39:20.829Z,2068
2017-03-03T09:40:20.946Z,1884
2017-03-03T09:41:21.468Z,1916
2017-03-03T09:42:20.555Z,1856
2017-03-03T09:43:21.520Z,1836
2017-03-03T09:44:20.535Z,1812
2017-03-03T09:45:20.984Z,1804
2017-03-03T09:46:20.934Z,1792
2017-03-03T09:47:20.538Z,1704
2017-03-03T09:48:20.853Z,1664
2017-03-03T09:49:20.962Z,1640
2017-03-03T09:50:20.968Z,1588
2017-03-03T09:51:20.618Z,1584
2017-03-03T09:52:21.377Z,1580
2017-03-03T09:53:22.186Z,1628
2017-03-03T09:54:21.498Z,1628
2017-03-03T09:55:21.034Z,1628
2017-03-03T09:56:20.962Z,1604
2017-03-03T09:57:20.633Z,1572
2017-03-03T09:58:20.585Z,1544
2017-03-03T09:59:20.342Z,1512
2017-03-03T10:00:20.645Z,1488
2017-03-03T10:01:21.108Z,1472
2017-03-03T10:02:20.708Z,1444
2017-03-03T10:03:22.097Z,1416
2017-03-03T10:04:21.428Z,1388
2017-03-03T10:05:21.788Z,1352
2017-03-03T10:06:21.082Z,1312
2017-03-03T10:07:20.997Z,1276
2017-03-03T10:08:21.200Z,1268
2017-03-03T10:09:20.386Z,1244
2017-03-03T10:10:20.728Z,1232
2017-03-03T10:11:21.142Z,1220
2017-03-03T10:12:21.179Z,1208
2017-03-03T10:13:21.105Z,1180
2017-03-03T10:14:21.450Z,1160
2017-03-03T10:15:21.211Z,1140
2017-03-03T10:16:21.332Z,1132
2017-03-03T10:17:21.441Z,1132
2017-03-03T10:18:20.830Z,1124
2017-03-03T10:19:21.147Z,1104
2017-03-03T10:20:20.904Z,1108
2017-03-03T10:21:20.813Z,1112
2017-03-03T10:22:21.167Z,1120
2017-03-03T10:23:21.164Z,1120
2017-03-03T10:24:20.788Z,1128
2017-03-03T10:25:21.956Z,1128
2017-03-03T10:26:20.869Z,1124
2017-03-03T10:27:21.552Z,1112
2017-03-03T10:28:21.372Z,1100
2017-03-03T10:29:20.892Z,1092
2017-03-03T10:30:20.977Z,1084
2017-03-03T10:31:21.278Z,1072
2017-03-03T10:32:20.940Z,1064
2017-03-03T10:33:21.341Z,1052
2017-03-03T10:34:21.249Z,1040
2017-03-03T10:35:21.320Z,1020
2017-03-03T10:36:22.173Z,1000
2017-03-03T10:37:20.543Z,976
2017-03-03T10:38:21.393Z,956
2017-03-03T10:39:20.989Z,936
2017-03-03T10:40:21.407Z,916
2017-03-03T10:41:21.011Z,892
2017-03-03T10:42:21.362Z,872
2017-03-03T10:43:20.968Z,856
2017-03-03T10:44:21.336Z,848
2017-03-03T10:45:21.433Z,844
2017-03-03T10:46:21.465Z,852
2017-03-03T10:47:22.135Z,860
2017-03-03T10:48:21.431Z,876
2017-03-03T10:49:21.413Z,900
2017-03-03T10:50:21.497Z,916
2017-03-03T10:51:21.054Z,920
2017-03-03T10:52:21.459Z,932
2017-03-03T10:53:21.450Z,928
2017-03-03T10:54:21.072Z,928
2017-03-03T10:55:21.464Z,944
2017-03-03T10:56:21.483Z,976
2017-03-03T10:57:21.036Z,996
2017-03-03T10:58:21.791Z,1104
2017-03-03T10:59:21.552Z,1260
2017-03-03T11:00:21.052Z,1432
2017-03-03T11:01:22.631Z,1544
2017-03-03T11:02:22.653Z,1664
2017-03-03T11:03:20.678Z,1720
2017-03-03T11:04:21.542Z,1744
2017-03-03T11:05:21.498Z,1844
2017-03-03T11:06:21.473Z,1812
2017-03-03T11:07:21.304Z,1800
2017-03-03T11:08:21.669Z,1748
2017-03-03T11:09:21.167Z,1748
2017-03-03T11:10:21.192Z,1712
2017-03-03T11:11:22.565Z,1720
2017-03-03T11:12:21.605Z,1620
2017-03-03T11:13:22.651Z,1580
2017-03-03T11:14:23.476Z,1588
2017-03-03T11:15:21.633Z,1536
2017-03-03T11:16:21.627Z,1524
2017-03-03T11:17:21.583Z,1492
2017-03-03T11:18:21.207Z,1464
2017-03-03T11:19:21.253Z,1460
2017-03-03T11:20:21.674Z,1476
2017-03-03T11:21:21.242Z,1508
2017-03-03T11:22:22.871Z,1524
2017-03-03T11:23:21.643Z,1504
2017-03-03T11:24:22.494Z,1536
2017-03-03T11:25:21.758Z,1612
2017-03-03T11:26:21.342Z,1612
2017-03-03T11:27:22.070Z,1456
2017-03-03T11:28:21.729Z,1344
2017-03-03T11:29:21.683Z,1300
2017-03-03T11:30:21.286Z,1312
2017-03-03T11:31:21.710Z,1336
2017-03-03T11:32:21.321Z,1360
2017-03-03T11:33:23.025Z,1348
2017-03-03T11:34:21.377Z,1352
2017-03-03T11:35:22.368Z,1348
2017-03-03T11:36:21.350Z,1392
2017-03-03T11:37:21.356Z,1292
2017-03-03T11:38:21.796Z,1304
2017-03-03T11:39:21.906Z,1284
2017-03-03T11:40:21.777Z,1256
2017-03-03T11:41:21.097Z,1256
2017-03-03T11:42:21.390Z,1268
2017-03-03T11:43:23.188Z,1268
2017-03-03T11:44:22.496Z,1288
2017-03-03T11:45:21.413Z,1344
2017-03-03T11:46:22.099Z,1440
2017-03-03T11:47:21.439Z,1380
2017-03-03T11:48:21.059Z,1324
2017-03-03T11:49:21.155Z,1248
2017-03-03T11:50:21.522Z,1252
2017-03-03T11:51:21.497Z,1248
2017-03-03T11:52:21.468Z,1284
2017-03-03T11:53:21.916Z,1236
2017-03-03T11:54:21.928Z,1216
2017-03-03T11:55:25.261Z,1208
2017-03-03T11:56:21.944Z,1208
2017-03-03T11:57:21.952Z,1164
2017-03-03T11:58:21.925Z,1060
2017-03-03T11:59:21.158Z,988
2017-03-03T12:00:21.580Z,936
2017-03-03T12:01:21.582Z,888
2017-03-03T12:02:21.992Z,828
2017-03-03T12:03:22.260Z,776
2017-03-03T12:04:21.945Z,768
2017-03-03T12:05:22.578Z,788
2017-03-03T12:06:22.584Z,848
2017-03-03T12:07:21.983Z,904
2017-03-03T12:08:22.184Z,1164
2017-03-03T12:09:22.297Z,1300
2017-03-03T12:10:22.015Z,1368
2017-03-03T12:11:21.311Z,1368
2017-03-03T12:12:21.723Z,1388
2017-03-03T12:13:22.768Z,1428
2017-03-03T12:14:21.782Z,1388
2017-03-03T12:15:22.083Z,1344
2017-03-03T12:16:21.798Z,1256
2017-03-03T12:17:22.610Z,1212
2017-03-03T12:18:22.120Z,1148
2017-03-03T12:19:22.239Z,1044
2017-03-03T12:20:21.670Z,1040
2017-03-03T12:21:21.346Z,1024
2017-03-03T12:22:21.410Z,1024
2017-03-03T12:23:22.094Z,1004
2017-03-03T12:24:21.763Z,976
2017-03-03T12:25:21.797Z,972
2017-03-03T12:26:22.263Z,1008
2017-03-03T12:27:21.825Z,1052
2017-03-03T12:28:23.097Z,1084
2017-03-03T12:29:22.263Z,1076
2017-03-03T12:30:22.197Z,1068
2017-03-03T12:31:22.215Z,1064
2017-03-03T12:32:22.461Z,1076
2017-03-03T12:33:22.170Z,1056
2017-03-03T12:34:22.286Z,1012
2017-03-03T12:35:22.196Z,944
2017-03-03T12:36:22.243Z,892
2017-03-03T12:37:22.199Z,852
2017-03-03T12:38:22.261Z,792
2017-03-03T12:39:22.920Z,724
2017-03-03T12:40:21.876Z,672
2017-03-03T12:41:22.185Z,640
2017-03-03T12:42:21.529Z,608
2017-03-03T12:43:22.361Z,596
2017-03-03T12:44:21.956Z,604
2017-03-03T12:45:21.915Z,612
2017-03-03T12:46:21.935Z,640
2017-03-03T12:47:21.891Z,676
2017-03-03T12:48:21.964Z,704
2017-03-03T12:49:21.615Z,736
2017-03-03T12:50:22.614Z,768
2017-03-03T12:51:21.613Z,780
2017-03-03T12:52:22.369Z,764
2017-03-03T12:53:22.376Z,728
2017-03-03T12:54:22.337Z,652
2017-03-03T12:55:22.437Z,584
2017-03-03T12:56:22.422Z,548
2017-03-03T12:57:22.365Z,520
2017-03-03T12:58:22.527Z,488
2017-03-03T12:59:22.026Z,468
2017-03-03T13:00:22.449Z,456
2017-03-03T13:01:25.430Z,460
2017-03-03T13:02:22.094Z,472
2017-03-03T13:03:22.408Z,500
2017-03-03T13:04:22.503Z,532
2017-03-03T13:05:23.335Z,580
2017-03-03T13:06:22.475Z,636
2017-03-03T13:07:22.486Z,696
2017-03-03T13:08:22.533Z,704
2017-03-03T13:09:22.478Z,684
2017-03-03T13:10:22.447Z,660
2017-03-03T13:11:22.570Z,644
2017-03-03T13:12:22.823Z,632
2017-03-03T13:13:22.482Z,612
2017-03-03T13:14:22.480Z,592
2017-03-03T13:15:22.546Z,572
2017-03-03T13:16:22.106Z,556
2017-03-03T13:17:22.498Z,548
2017-03-03T13:18:22.415Z,520
2017-03-03T13:19:22.649Z,500
2017-03-03T13:20:22.633Z,484
2017-03-03T13:21:22.431Z,460
2017-03-03T13:22:22.558Z,432
2017-03-03T13:23:22.860Z,404
2017-03-03T13:24:22.271Z,376
2017-03-03T13:25:22.611Z,348
2017-03-03T13:26:22.667Z,324
2017-03-03T13:27:22.648Z,308
2017-03-03T13:28:22.403Z,296
2017-03-03T13:29:22.187Z,280
2017-03-03T13:30:23.147Z,272
2017-03-03T13:31:22.661Z,260
2017-03-03T13:32:22.681Z,256
2017-03-03T13:33:22.771Z,252
2017-03-03T13:34:22.848Z,244
2017-03-03T13:35:22.730Z,236
2017-03-03T13:36:22.241Z,236
2017-03-03T13:37:22.723Z,248
2017-03-03T13:38:22.306Z,260
2017-03-03T13:39:22.730Z,292
2017-03-03T13:40:22.713Z,344
2017-03-03T13:41:22.722Z,392
2017-03-03T13:42:22.690Z,364
2017-03-03T13:43:22.751Z,292
2017-03-03T13:44:22.809Z,244
2017-03-03T13:45:22.355Z,236
2017-03-03T13:46:22.329Z,256
2017-03-03T13:47:22.392Z,292
2017-03-03T13:48:22.408Z,312
2017-03-03T13:49:22.794Z,312
2017-03-03T13:50:22.914Z,296
2017-03-03T13:51:22.419Z,280
2017-03-03T13:52:22.357Z,280
2017-03-03T13:53:23.301Z,296
2017-03-03T13:54:22.872Z,304
2017-03-03T13:55:22.776Z,304
2017-03-03T13:56:22.789Z,304
2017-03-03T13:57:23.190Z,308
2017-03-03T13:58:23.949Z,296
2017-03-03T13:59:22.914Z,284
2017-03-03T14:00:22.460Z,276
2017-03-03T14:01:22.471Z,272
2017-03-03T14:02:22.927Z,280
2017-03-03T14:03:22.881Z,296